Main page
METAR-TAF:

METAR-TAF

Airports :

Schleswig Air Base

Schleswig-Jagel, Germany

latitude: 54-28N, longitude: 009-31E, elevation: 22 m

Current weather observation

The report was made 42 minutes ago, at 12:20 UTC
Wind 7 kt from the North/Northwest
Temperature 17°C
Humidity 42%
Pressure 1032 hPa
Visibility 10 km or more
Few clouds at a height of 4200 ft

METAR: ETNS 281220Z 33007KT 9999 FEW042 17/04 Q1032 BLU+BLU+

Time: 15:02 (13:02 UTC)

Forecast

The report was made 2 hours and 52 minutes ago, at 10:10 UTC
Forecast valid from 28 at 11 UTC to 28 at 20 UTC
Wind 8 kt from the North/Northwest
Visibility 10 km or more
Few clouds at a height of 3000 ft
Temporary
from 28 at 11 UTC to 28 at 14 UTC
Wind 10 kt from the North/Northwest with gusts up to 20 kt
Visibility 10 km or more
Scattered clouds at a height of 4000 ft
Scattered clouds at a height of 30000 ft

TAF: ETNS 281010Z 2811/2820 33008KT 9999 NSW FEW030 TEMPO 2811/2814 34010G20KT 9999 NSW SCT040 SCT300 BY ETGL

Weather observations and forecasts of more than 4000 airports (METAR and TAF reports).

The available stations are represented by yellow and red dots on the map.

Hover mouse over dot to see the name of the station.

Then click to see weather observations and forecasts.

To change the map : click on the green buttons with a black cross to zoom in, on the green button with a dash to zoom out, or on the green arrows for adjacent maps.


METAR-TAF: